sensor_id;sensor_type;location;lat;lon;timestamp;temperature;humidity
39045;DHT22;52192;52.002;5.956;2022-11-03T00:01:40;13.70;67.70
39045;DHT22;52192;52.002;5.956;2022-11-03T00:04:07;13.70;67.70
39045;DHT22;52192;52.002;5.956;2022-11-03T00:06:34;13.70;67.90
39045;DHT22;52192;52.002;5.956;2022-11-03T00:09:03;13.60;68.00
39045;DHT22;52192;52.002;5.956;2022-11-03T00:11:32;13.70;68.10
39045;DHT22;52192;52.002;5.956;2022-11-03T00:13:58;13.60;68.00
39045;DHT22;52192;52.002;5.956;2022-11-03T00:16:24;13.60;68.10
39045;DHT22;52192;52.002;5.956;2022-11-03T00:18:50;13.70;68.10
39045;DHT22;52192;52.002;5.956;2022-11-03T00:21:16;13.70;68.90
39045;DHT22;52192;52.002;5.956;2022-11-03T00:23:43;13.60;68.30
39045;DHT22;52192;52.002;5.956;2022-11-03T00:26:18;13.60;68.40
39045;DHT22;52192;52.002;5.956;2022-11-03T00:28:47;13.60;68.40
39045;DHT22;52192;52.002;5.956;2022-11-03T00:31:25;13.60;68.40
39045;DHT22;52192;52.002;5.956;2022-11-03T00:33:51;13.60;68.40
39045;DHT22;52192;52.002;5.956;2022-11-03T00:36:20;13.60;68.40
39045;DHT22;52192;52.002;5.956;2022-11-03T00:38:46;13.60;68.50
39045;DHT22;52192;52.002;5.956;2022-11-03T00:41:12;13.60;68.70
39045;DHT22;52192;52.002;5.956;2022-11-03T00:43:39;13.60;68.90
39045;DHT22;52192;52.002;5.956;2022-11-03T00:46:06;13.60;68.90
39045;DHT22;52192;52.002;5.956;2022-11-03T00:48:34;13.60;68.90
39045;DHT22;52192;52.002;5.956;2022-11-03T00:51:09;13.60;69.00
39045;DHT22;52192;52.002;5.956;2022-11-03T00:56:04;13.50;69.30
39045;DHT22;52192;52.002;5.956;2022-11-03T00:58:30;13.50;69.40
39045;DHT22;52192;52.002;5.956;2022-11-03T01:03:25;13.50;69.60
39045;DHT22;52192;52.002;5.956;2022-11-03T01:05:51;13.50;69.60
39045;DHT22;52192;52.002;5.956;2022-11-03T01:08:35;13.50;69.70
39045;DHT22;52192;52.002;5.956;2022-11-03T01:11:09;13.50;69.80
39045;DHT22;52192;52.002;5.956;2022-11-03T01:13:53;13.40;70.00
39045;DHT22;52192;52.002;5.956;2022-11-03T01:16:20;13.40;70.70
39045;DHT22;52192;52.002;5.956;2022-11-03T01:18:46;13.40;70.10
39045;DHT22;52192;52.002;5.956;2022-11-03T01:21:12;13.40;70.20
39045;DHT22;52192;52.002;5.956;2022-11-03T01:23:38;13.40;70.30
39045;DHT22;52192;52.002;5.956;2022-11-03T01:26:04;13.40;70.30
39045;DHT22;52192;52.002;5.956;2022-11-03T01:28:33;13.40;70.50
39045;DHT22;52192;52.002;5.956;2022-11-03T01:31:04;13.40;70.40
39045;DHT22;52192;52.002;5.956;2022-11-03T01:33:29;13.30;70.50
39045;DHT22;52192;52.002;5.956;2022-11-03T01:35:55;13.40;70.50
39045;DHT22;52192;52.002;5.956;2022-11-03T01:38:21;13.40;70.50
39045;DHT22;52192;52.002;5.956;2022-11-03T01:40:46;13.40;70.50
39045;DHT22;52192;52.002;5.956;2022-11-03T01:43:21;13.30;70.60
39045;DHT22;52192;52.002;5.956;2022-11-03T01:45:52;13.40;70.60
39045;DHT22;52192;52.002;5.956;2022-11-03T01:48:21;13.30;70.70
39045;DHT22;52192;52.002;5.956;2022-11-03T01:50:48;13.30;70.90
39045;DHT22;52192;52.002;5.956;2022-11-03T01:53:15;13.20;71.20
39045;DHT22;52192;52.002;5.956;2022-11-03T01:55:42;13.20;71.30
39045;DHT22;52192;52.002;5.956;2022-11-03T01:58:21;13.20;71.50
39045;DHT22;52192;52.002;5.956;2022-11-03T02:00:52;13.10;71.50
39045;DHT22;52192;52.002;5.956;2022-11-03T02:03:19;13.10;71.50
39045;DHT22;52192;52.002;5.956;2022-11-03T02:05:47;13.10;71.70
39045;DHT22;52192;52.002;5.956;2022-11-03T02:10:39;13.10;71.80
39045;DHT22;52192;52.002;5.956;2022-11-03T02:13:25;13.10;71.70
39045;DHT22;52192;52.002;5.956;2022-11-03T02:15:58;13.10;71.60
39045;DHT22;52192;52.002;5.956;2022-11-03T02:18:28;13.10;71.70
39045;DHT22;52192;52.002;5.956;2022-11-03T02:24:01;13.10;71.70
39045;DHT22;52192;52.002;5.956;2022-11-03T02:26:30;13.10;71.90
39045;DHT22;52192;52.002;5.956;2022-11-03T02:28:56;13.00;71.90
39045;DHT22;52192;52.002;5.956;2022-11-03T02:31:34;13.00;71.90
39045;DHT22;52192;52.002;5.956;2022-11-03T02:34:28;13.10;72.00
39045;DHT22;52192;52.002;5.956;2022-11-03T02:37:15;13.10;72.00
39045;DHT22;52192;52.002;5.956;2022-11-03T02:40:07;13.00;72.10
39045;DHT22;52192;52.002;5.956;2022-11-03T02:42:35;13.00;72.10
39045;DHT22;52192;52.002;5.956;2022-11-03T02:45:04;13.00;72.40
39045;DHT22;52192;52.002;5.956;2022-11-03T02:47:32;12.90;72.40
39045;DHT22;52192;52.002;5.956;2022-11-03T02:50:04;13.00;72.50
39045;DHT22;52192;52.002;5.956;2022-11-03T02:52:36;13.00;72.50
39045;DHT22;52192;52.002;5.956;2022-11-03T02:57:43;13.00;72.70
39045;DHT22;52192;52.002;5.956;2022-11-03T03:00:10;12.90;72.80
39045;DHT22;52192;52.002;5.956;2022-11-03T03:02:43;12.90;72.80
39045;DHT22;52192;52.002;5.956;2022-11-03T03:05:13;13.00;72.80
39045;DHT22;52192;52.002;5.956;2022-11-03T03:07:45;13.00;72.70
39045;DHT22;52192;52.002;5.956;2022-11-03T03:12:42;13.00;72.70
39045;DHT22;52192;52.002;5.956;2022-11-03T03:15:11;13.00;72.70
39045;DHT22;52192;52.002;5.956;2022-11-03T03:20:26;13.00;72.80
39045;DHT22;52192;52.002;5.956;2022-11-03T03:23:15;13.00;72.80
39045;DHT22;52192;52.002;5.956;2022-11-03T03:28:41;13.00;73.00
39045;DHT22;52192;52.002;5.956;2022-11-03T03:31:10;13.00;73.00
39045;DHT22;52192;52.002;5.956;2022-11-03T03:33:38;13.00;73.10
39045;DHT22;52192;52.002;5.956;2022-11-03T03:36:08;13.00;73.10
39045;DHT22;52192;52.002;5.956;2022-11-03T03:38:39;13.00;73.00
39045;DHT22;52192;52.002;5.956;2022-11-03T03:41:07;13.00;73.00
39045;DHT22;52192;52.002;5.956;2022-11-03T03:43:34;13.00;73.60
39045;DHT22;52192;52.002;5.956;2022-11-03T03:46:06;13.00;73.00
39045;DHT22;52192;52.002;5.956;2022-11-03T03:48:34;13.00;73.00
39045;DHT22;52192;52.002;5.956;2022-11-03T03:51:01;13.00;73.10
39045;DHT22;52192;52.002;5.956;2022-11-03T03:53:28;13.00;73.00
39045;DHT22;52192;52.002;5.956;2022-11-03T03:55:55;13.00;73.10
39045;DHT22;52192;52.002;5.956;2022-11-03T03:58:22;13.00;73.00
39045;DHT22;52192;52.002;5.956;2022-11-03T04:00:48;13.00;73.10
39045;DHT22;52192;52.002;5.956;2022-11-03T04:03:18;13.00;73.10
39045;DHT22;52192;52.002;5.956;2022-11-03T04:05:45;13.00;73.00
39045;DHT22;52192;52.002;5.956;2022-11-03T04:08:11;13.00;73.00
39045;DHT22;52192;52.002;5.956;2022-11-03T04:10:37;13.00;73.60
39045;DHT22;52192;52.002;5.956;2022-11-03T04:13:04;13.00;73.00
39045;DHT22;52192;52.002;5.956;2022-11-03T04:15:48;13.00;73.10
39045;DHT22;52192;52.002;5.956;2022-11-03T04:18:18;13.00;73.00
39045;DHT22;52192;52.002;5.956;2022-11-03T04:21:04;13.00;73.00
39045;DHT22;52192;52.002;5.956;2022-11-03T04:23:48;13.00;73.00
39045;DHT22;52192;52.002;5.956;2022-11-03T04:26:17;13.00;72.90
39045;DHT22;52192;52.002;5.956;2022-11-03T04:28:44;13.00;72.80
39045;DHT22;52192;52.002;5.956;2022-11-03T04:31:15;13.10;72.90
39045;DHT22;52192;52.002;5.956;2022-11-03T04:33:42;13.10;73.00
39045;DHT22;52192;52.002;5.956;2022-11-03T04:36:24;13.10;73.00
39045;DHT22;52192;52.002;5.956;2022-11-03T04:38:50;13.20;72.90
39045;DHT22;52192;52.002;5.956;2022-11-03T04:41:23;13.10;73.00
39045;DHT22;52192;52.002;5.956;2022-11-03T04:43:50;13.10;72.90
39045;DHT22;52192;52.002;5.956;2022-11-03T04:46:21;13.10;72.90
39045;DHT22;52192;52.002;5.956;2022-11-03T04:48:48;13.10;72.90
39045;DHT22;52192;52.002;5.956;2022-11-03T04:51:20;13.10;72.90
39045;DHT22;52192;52.002;5.956;2022-11-03T04:53:52;13.10;72.90
39045;DHT22;52192;52.002;5.956;2022-11-03T04:56:21;13.10;73.40
39045;DHT22;52192;52.002;5.956;2022-11-03T04:58:47;13.10;72.90
39045;DHT22;52192;52.002;5.956;2022-11-03T05:01:17;13.10;73.00
39045;DHT22;52192;52.002;5.956;2022-11-03T05:03:45;13.10;73.00
39045;DHT22;52192;52.002;5.956;2022-11-03T05:06:21;13.10;73.00
39045;DHT22;52192;52.002;5.956;2022-11-03T05:08:57;13.10;73.00
39045;DHT22;52192;52.002;5.956;2022-11-03T05:11:33;13.10;73.00
39045;DHT22;52192;52.002;5.956;2022-11-03T05:14:03;13.10;73.00
39045;DHT22;52192;52.002;5.956;2022-11-03T05:16:31;13.10;73.20
39045;DHT22;52192;52.002;5.956;2022-11-03T05:18:57;13.10;73.40
39045;DHT22;52192;52.002;5.956;2022-11-03T05:21:25;13.10;73.40
39045;DHT22;52192;52.002;5.956;2022-11-03T05:24:00;13.10;73.30
39045;DHT22;52192;52.002;5.956;2022-11-03T05:26:33;13.10;73.30
39045;DHT22;52192;52.002;5.956;2022-11-03T05:29:18;13.10;73.30
39045;DHT22;52192;52.002;5.956;2022-11-03T05:31:46;13.10;73.40
39045;DHT22;52192;52.002;5.956;2022-11-03T05:36:41;13.10;73.50
39045;DHT22;52192;52.002;5.956;2022-11-03T05:41:51;13.10;73.40
39045;DHT22;52192;52.002;5.956;2022-11-03T05:44:35;13.10;73.60
39045;DHT22;52192;52.002;5.956;2022-11-03T05:47:21;13.10;73.60
39045;DHT22;52192;52.002;5.956;2022-11-03T05:49:51;13.10;73.50
39045;DHT22;52192;52.002;5.956;2022-11-03T05:52:23;13.10;73.60
39045;DHT22;52192;52.002;5.956;2022-11-03T05:54:51;13.10;73.50
39045;DHT22;52192;52.002;5.956;2022-11-03T05:57:18;13.10;73.60
39045;DHT22;52192;52.002;5.956;2022-11-03T05:59:49;13.10;73.60
39045;DHT22;52192;52.002;5.956;2022-11-03T06:02:37;13.10;73.70
39045;DHT22;52192;52.002;5.956;2022-11-03T06:05:21;13.20;73.80
39045;DHT22;52192;52.002;5.956;2022-11-03T06:07:52;13.10;74.00
39045;DHT22;52192;52.002;5.956;2022-11-03T06:10:35;13.10;74.10
39045;DHT22;52192;52.002;5.956;2022-11-03T06:15:45;13.10;73.90
39045;DHT22;52192;52.002;5.956;2022-11-03T06:18:25;13.10;74.00
39045;DHT22;52192;52.002;5.956;2022-11-03T06:20:57;13.10;74.70
39045;DHT22;52192;52.002;5.956;2022-11-03T06:23:23;13.10;74.10
39045;DHT22;52192;52.002;5.956;2022-11-03T06:25:52;13.10;74.00
39045;DHT22;52192;52.002;5.956;2022-11-03T06:28:38;13.10;74.10
39045;DHT22;52192;52.002;5.956;2022-11-03T06:31:30;13.20;74.00
39045;DHT22;52192;52.002;5.956;2022-11-03T06:33:57;13.20;74.00
39045;DHT22;52192;52.002;5.956;2022-11-03T06:36:25;13.20;74.10
39045;DHT22;52192;52.002;5.956;2022-11-03T06:38:59;13.10;74.00
39045;DHT22;52192;52.002;5.956;2022-11-03T06:41:27;13.20;74.10
39045;DHT22;52192;52.002;5.956;2022-11-03T06:43:54;13.20;74.00
39045;DHT22;52192;52.002;5.956;2022-11-03T06:46:25;13.20;74.00
39045;DHT22;52192;52.002;5.956;2022-11-03T06:48:57;13.20;74.20
39045;DHT22;52192;52.002;5.956;2022-11-03T06:51:28;13.20;74.20
39045;DHT22;52192;52.002;5.956;2022-11-03T06:53:57;13.20;74.20
39045;DHT22;52192;52.002;5.956;2022-11-03T06:56:27;13.20;74.40
39045;DHT22;52192;52.002;5.956;2022-11-03T06:58:55;13.30;74.50
39045;DHT22;52192;52.002;5.956;2022-11-03T07:01:23;13.30;74.50
39045;DHT22;52192;52.002;5.956;2022-11-03T07:03:51;13.30;74.50
39045;DHT22;52192;52.002;5.956;2022-11-03T07:06:28;13.30;74.50
39045;DHT22;52192;52.002;5.956;2022-11-03T07:09:06;13.30;74.50
39045;DHT22;52192;52.002;5.956;2022-11-03T07:11:40;13.40;74.60
39045;DHT22;52192;52.002;5.956;2022-11-03T07:14:11;13.40;74.60
39045;DHT22;52192;52.002;5.956;2022-11-03T07:16:47;13.40;74.70
39045;DHT22;52192;52.002;5.956;2022-11-03T07:19:25;13.40;74.60
39045;DHT22;52192;52.002;5.956;2022-11-03T07:22:02;13.40;74.60
39045;DHT22;52192;52.002;5.956;2022-11-03T07:24:30;13.40;74.60
39045;DHT22;52192;52.002;5.956;2022-11-03T07:27:15;13.40;74.60
39045;DHT22;52192;52.002;5.956;2022-11-03T07:29:45;13.50;74.60
39045;DHT22;52192;52.002;5.956;2022-11-03T07:32:15;13.50;74.70
39045;DHT22;52192;52.002;5.956;2022-11-03T07:34:42;13.50;74.80
39045;DHT22;52192;52.002;5.956;2022-11-03T07:37:24;13.50;74.70
39045;DHT22;52192;52.002;5.956;2022-11-03T07:39:51;13.50;74.60
39045;DHT22;52192;52.002;5.956;2022-11-03T07:42:22;13.50;74.60
39045;DHT22;52192;52.002;5.956;2022-11-03T07:44:49;13.60;74.50
39045;DHT22;52192;52.002;5.956;2022-11-03T07:47:22;13.60;74.60
39045;DHT22;52192;52.002;5.956;2022-11-03T07:49:51;13.70;74.40
39045;DHT22;52192;52.002;5.956;2022-11-03T07:52:23;13.70;74.30
39045;DHT22;52192;52.002;5.956;2022-11-03T07:54:50;13.80;74.30
39045;DHT22;52192;52.002;5.956;2022-11-03T07:57:25;13.80;74.30
39045;DHT22;52192;52.002;5.956;2022-11-03T07:59:57;13.80;74.30
39045;DHT22;52192;52.002;5.956;2022-11-03T08:02:40;13.80;74.20
39045;DHT22;52192;52.002;5.956;2022-11-03T08:05:08;13.90;74.30
39045;DHT22;52192;52.002;5.956;2022-11-03T08:07:33;13.80;74.40
39045;DHT22;52192;52.002;5.956;2022-11-03T08:09:59;13.80;74.30
39045;DHT22;52192;52.002;5.956;2022-11-03T08:12:24;13.90;74.30
39045;DHT22;52192;52.002;5.956;2022-11-03T08:14:50;13.90;74.20
39045;DHT22;52192;52.002;5.956;2022-11-03T08:17:16;13.90;74.10
39045;DHT22;52192;52.002;5.956;2022-11-03T08:19:41;13.90;74.30
39045;DHT22;52192;52.002;5.956;2022-11-03T08:22:07;13.90;74.30
39045;DHT22;52192;52.002;5.956;2022-11-03T08:24:33;14.00;74.50
39045;DHT22;52192;52.002;5.956;2022-11-03T08:26:59;14.00;74.50
39045;DHT22;52192;52.002;5.956;2022-11-03T08:29:25;14.00;74.60
39045;DHT22;52192;52.002;5.956;2022-11-03T08:31:52;14.00;74.50
39045;DHT22;52192;52.002;5.956;2022-11-03T08:34:18;14.10;74.50
39045;DHT22;52192;52.002;5.956;2022-11-03T08:36:44;14.10;74.40
39045;DHT22;52192;52.002;5.956;2022-11-03T08:39:10;14.10;74.50
39045;DHT22;52192;52.002;5.956;2022-11-03T08:41:35;14.10;74.40
39045;DHT22;52192;52.002;5.956;2022-11-03T08:44:01;14.10;74.40
39045;DHT22;52192;52.002;5.956;2022-11-03T08:46:27;14.10;74.50
39045;DHT22;52192;52.002;5.956;2022-11-03T08:48:53;14.10;74.60
39045;DHT22;52192;52.002;5.956;2022-11-03T08:51:19;14.10;74.50
39045;DHT22;52192;52.002;5.956;2022-11-03T08:53:44;14.10;74.50
39045;DHT22;52192;52.002;5.956;2022-11-03T08:56:14;14.10;74.40
39045;DHT22;52192;52.002;5.956;2022-11-03T08:58:40;14.20;74.40
39045;DHT22;52192;52.002;5.956;2022-11-03T09:01:06;14.20;74.20
39045;DHT22;52192;52.002;5.956;2022-11-03T09:03:32;14.30;74.10
39045;DHT22;52192;52.002;5.956;2022-11-03T09:05:58;14.30;74.00
39045;DHT22;52192;52.002;5.956;2022-11-03T09:08:23;14.40;73.90
39045;DHT22;52192;52.002;5.956;2022-11-03T09:10:49;14.40;73.80
39045;DHT22;52192;52.002;5.956;2022-11-03T09:13:14;14.50;73.70
39045;DHT22;52192;52.002;5.956;2022-11-03T09:15:40;14.50;73.60
39045;DHT22;52192;52.002;5.956;2022-11-03T09:18:06;14.60;73.50
39045;DHT22;52192;52.002;5.956;2022-11-03T09:20:31;14.60;73.40
39045;DHT22;52192;52.002;5.956;2022-11-03T09:22:57;14.70;73.30
39045;DHT22;52192;52.002;5.956;2022-11-03T09:25:23;14.70;73.20
39045;DHT22;52192;52.002;5.956;2022-11-03T09:27:48;14.70;73.10
39045;DHT22;52192;52.002;5.956;2022-11-03T09:30:14;14.80;73.00
39045;DHT22;52192;52.002;5.956;2022-11-03T09:32:42;14.80;73.00
39045;DHT22;52192;52.002;5.956;2022-11-03T09:35:08;14.80;72.90
39045;DHT22;52192;52.002;5.956;2022-11-03T09:37:36;14.90;72.90
39045;DHT22;52192;52.002;5.956;2022-11-03T09:40:03;14.90;72.70
39045;DHT22;52192;52.002;5.956;2022-11-03T09:42:30;15.00;72.50
39045;DHT22;52192;52.002;5.956;2022-11-03T09:44:58;15.10;72.40
39045;DHT22;52192;52.002;5.956;2022-11-03T09:47:45;15.10;72.10
39045;DHT22;52192;52.002;5.956;2022-11-03T09:50:16;15.20;72.00
39045;DHT22;52192;52.002;5.956;2022-11-03T09:52:43;15.30;71.80
39045;DHT22;52192;52.002;5.956;2022-11-03T09:55:22;15.40;71.60
39045;DHT22;52192;52.002;5.956;2022-11-03T09:57:59;15.50;71.10
39045;DHT22;52192;52.002;5.956;2022-11-03T10:00:25;15.60;71.00
39045;DHT22;52192;52.002;5.956;2022-11-03T10:02:52;15.60;70.80
39045;DHT22;52192;52.002;5.956;2022-11-03T10:05:24;15.60;70.80
39045;DHT22;52192;52.002;5.956;2022-11-03T10:07:52;15.60;70.70
39045;DHT22;52192;52.002;5.956;2022-11-03T10:10:21;15.60;70.60
39045;DHT22;52192;52.002;5.956;2022-11-03T10:12:50;15.60;70.50
39045;DHT22;52192;52.002;5.956;2022-11-03T10:15:18;15.60;70.40
39045;DHT22;52192;52.002;5.956;2022-11-03T10:17:45;15.60;70.40
39045;DHT22;52192;52.002;5.956;2022-11-03T10:20:13;15.50;70.30
39045;DHT22;52192;52.002;5.956;2022-11-03T10:22:40;15.50;70.30
39045;DHT22;52192;52.002;5.956;2022-11-03T10:25:36;15.50;70.30
39045;DHT22;52192;52.002;5.956;2022-11-03T10:30:47;15.50;70.40
39045;DHT22;52192;52.002;5.956;2022-11-03T10:33:32;15.50;70.20
39045;DHT22;52192;52.002;5.956;2022-11-03T10:38:39;15.50;70.00
39045;DHT22;52192;52.002;5.956;2022-11-03T10:41:10;15.50;70.00
39045;DHT22;52192;52.002;5.956;2022-11-03T10:43:41;15.50;70.00
39045;DHT22;52192;52.002;5.956;2022-11-03T10:46:18;15.50;70.10
39045;DHT22;52192;52.002;5.956;2022-11-03T10:48:48;15.50;69.90
39045;DHT22;52192;52.002;5.956;2022-11-03T10:51:25;15.50;69.90
39045;DHT22;52192;52.002;5.956;2022-11-03T10:53:51;15.50;69.80
39045;DHT22;52192;52.002;5.956;2022-11-03T10:56:16;15.60;69.70
39045;DHT22;52192;52.002;5.956;2022-11-03T10:58:42;15.50;69.60
39045;DHT22;52192;52.002;5.956;2022-11-03T11:01:09;15.50;69.40
39045;DHT22;52192;52.002;5.956;2022-11-03T11:03:40;15.50;69.20
39045;DHT22;52192;52.002;5.956;2022-11-03T11:06:19;15.50;69.20
39045;DHT22;52192;52.002;5.956;2022-11-03T11:08:46;15.60;69.30
39045;DHT22;52192;52.002;5.956;2022-11-03T11:11:17;15.50;69.10
39045;DHT22;52192;52.002;5.956;2022-11-03T11:13:43;15.50;69.00
39045;DHT22;52192;52.002;5.956;2022-11-03T11:16:49;15.60;69.00
39045;DHT22;52192;52.002;5.956;2022-11-03T11:19:15;15.60;68.80
39045;DHT22;52192;52.002;5.956;2022-11-03T11:24:10;15.70;68.60
39045;DHT22;52192;52.002;5.956;2022-11-03T11:26:36;15.80;68.60
39045;DHT22;52192;52.002;5.956;2022-11-03T11:31:39;16.10;67.70
39045;DHT22;52192;52.002;5.956;2022-11-03T11:36:34;16.20;67.20
39045;DHT22;52192;52.002;5.956;2022-11-03T11:39:01;16.20;67.20
39045;DHT22;52192;52.002;5.956;2022-11-03T11:47:30;16.30;67.20
39045;DHT22;52192;52.002;5.956;2022-11-03T11:52:49;16.20;66.60
39045;DHT22;52192;52.002;5.956;2022-11-03T11:55:18;16.30;66.80
39045;DHT22;52192;52.002;5.956;2022-11-03T11:57:44;16.50;66.60
39045;DHT22;52192;52.002;5.956;2022-11-03T12:00:27;16.60;66.20
39045;DHT22;52192;52.002;5.956;2022-11-03T12:03:03;17.10;65.50
39045;DHT22;52192;52.002;5.956;2022-11-03T12:05:33;17.50;64.30
39045;DHT22;52192;52.002;5.956;2022-11-03T12:07:59;17.60;63.50
39045;DHT22;52192;52.002;5.956;2022-11-03T12:10:27;17.70;63.70
39045;DHT22;52192;52.002;5.956;2022-11-03T12:12:54;17.90;62.30
39045;DHT22;52192;52.002;5.956;2022-11-03T12:15:57;17.90;62.30
39045;DHT22;52192;52.002;5.956;2022-11-03T12:18:30;17.70;62.20
39045;DHT22;52192;52.002;5.956;2022-11-03T12:20:56;17.50;62.50
39045;DHT22;52192;52.002;5.956;2022-11-03T12:26:04;17.80;62.60
39045;DHT22;52192;52.002;5.956;2022-11-03T12:28:34;17.90;62.20
39045;DHT22;52192;52.002;5.956;2022-11-03T12:31:01;18.00;62.10
39045;DHT22;52192;52.002;5.956;2022-11-03T12:33:27;18.00;62.10
39045;DHT22;52192;52.002;5.956;2022-11-03T12:35:54;17.80;62.10
39045;DHT22;52192;52.002;5.956;2022-11-03T12:38:20;17.70;62.00
39045;DHT22;52192;52.002;5.956;2022-11-03T12:40:45;17.60;62.50
39045;DHT22;52192;52.002;5.956;2022-11-03T12:43:11;17.60;62.80
39045;DHT22;52192;52.002;5.956;2022-11-03T12:45:37;17.60;62.70
39045;DHT22;52192;52.002;5.956;2022-11-03T12:48:02;17.70;62.80
39045;DHT22;52192;52.002;5.956;2022-11-03T12:50:29;17.70;62.20
39045;DHT22;52192;52.002;5.956;2022-11-03T12:52:54;17.70;62.50
39045;DHT22;52192;52.002;5.956;2022-11-03T12:55:20;17.80;62.60
39045;DHT22;52192;52.002;5.956;2022-11-03T12:57:46;17.70;62.40
39045;DHT22;52192;52.002;5.956;2022-11-03T13:00:12;17.60;62.20
39045;DHT22;52192;52.002;5.956;2022-11-03T13:02:38;17.50;62.10
39045;DHT22;52192;52.002;5.956;2022-11-03T13:05:04;17.50;62.30
39045;DHT22;52192;52.002;5.956;2022-11-03T13:07:31;17.50;62.50
39045;DHT22;52192;52.002;5.956;2022-11-03T13:09:57;17.50;62.50
39045;DHT22;52192;52.002;5.956;2022-11-03T13:12:22;17.50;62.70
39045;DHT22;52192;52.002;5.956;2022-11-03T13:14:59;17.60;62.90
39045;DHT22;52192;52.002;5.956;2022-11-03T13:17:25;17.60;62.80
39045;DHT22;52192;52.002;5.956;2022-11-03T13:19:51;17.60;62.90
39045;DHT22;52192;52.002;5.956;2022-11-03T13:22:17;17.60;62.70
39045;DHT22;52192;52.002;5.956;2022-11-03T13:24:43;17.60;62.60
39045;DHT22;52192;52.002;5.956;2022-11-03T13:27:09;17.60;62.50
39045;DHT22;52192;52.002;5.956;2022-11-03T13:29:35;17.70;62.60
39045;DHT22;52192;52.002;5.956;2022-11-03T13:32:01;17.80;62.50
39045;DHT22;52192;52.002;5.956;2022-11-03T13:34:28;17.90;62.20
39045;DHT22;52192;52.002;5.956;2022-11-03T13:36:54;18.10;61.60
39045;DHT22;52192;52.002;5.956;2022-11-03T13:39:20;18.20;61.30
39045;DHT22;52192;52.002;5.956;2022-11-03T13:41:46;18.20;61.20
39045;DHT22;52192;52.002;5.956;2022-11-03T13:44:11;18.20;60.80
39045;DHT22;52192;52.002;5.956;2022-11-03T13:46:37;18.10;61.00
39045;DHT22;52192;52.002;5.956;2022-11-03T13:49:03;18.10;61.20
39045;DHT22;52192;52.002;5.956;2022-11-03T13:51:29;18.10;60.90
39045;DHT22;52192;52.002;5.956;2022-11-03T13:53:55;18.00;61.10
39045;DHT22;52192;52.002;5.956;2022-11-03T13:56:20;17.90;61.20
39045;DHT22;52192;52.002;5.956;2022-11-03T13:58:46;17.80;61.40
39045;DHT22;52192;52.002;5.956;2022-11-03T14:01:13;17.70;61.70
39045;DHT22;52192;52.002;5.956;2022-11-03T14:03:38;17.60;61.80
39045;DHT22;52192;52.002;5.956;2022-11-03T14:06:04;17.50;61.90
39045;DHT22;52192;52.002;5.956;2022-11-03T14:08:30;17.40;62.20
39045;DHT22;52192;52.002;5.956;2022-11-03T14:10:55;17.30;62.40
39045;DHT22;52192;52.002;5.956;2022-11-03T14:13:21;17.30;62.50
39045;DHT22;52192;52.002;5.956;2022-11-03T14:15:47;17.20;62.60
39045;DHT22;52192;52.002;5.956;2022-11-03T14:18:12;17.20;62.90
39045;DHT22;52192;52.002;5.956;2022-11-03T14:20:38;17.10;63.00
39045;DHT22;52192;52.002;5.956;2022-11-03T14:23:04;17.10;63.20
39045;DHT22;52192;52.002;5.956;2022-11-03T14:25:29;17.00;63.30
39045;DHT22;52192;52.002;5.956;2022-11-03T14:27:55;16.90;63.60
39045;DHT22;52192;52.002;5.956;2022-11-03T14:30:20;16.90;63.80
39045;DHT22;52192;52.002;5.956;2022-11-03T14:32:46;16.80;64.00
39045;DHT22;52192;52.002;5.956;2022-11-03T14:35:12;16.80;64.10
39045;DHT22;52192;52.002;5.956;2022-11-03T14:37:37;16.80;64.30
39045;DHT22;52192;52.002;5.956;2022-11-03T14:40:04;16.70;64.50
39045;DHT22;52192;52.002;5.956;2022-11-03T14:42:30;16.60;64.70
39045;DHT22;52192;52.002;5.956;2022-11-03T14:44:56;16.60;64.90
39045;DHT22;52192;52.002;5.956;2022-11-03T14:47:22;16.50;65.00
39045;DHT22;52192;52.002;5.956;2022-11-03T14:49:47;16.50;65.10
39045;DHT22;52192;52.002;5.956;2022-11-03T14:52:14;16.40;65.30
39045;DHT22;52192;52.002;5.956;2022-11-03T14:54:41;16.40;65.40
39045;DHT22;52192;52.002;5.956;2022-11-03T14:57:07;16.30;65.40
39045;DHT22;52192;52.002;5.956;2022-11-03T14:59:34;16.30;65.50
39045;DHT22;52192;52.002;5.956;2022-11-03T15:02:00;16.30;65.60
39045;DHT22;52192;52.002;5.956;2022-11-03T15:04:26;16.20;65.80
39045;DHT22;52192;52.002;5.956;2022-11-03T15:06:51;16.20;66.00
39045;DHT22;52192;52.002;5.956;2022-11-03T15:09:17;16.10;66.30
39045;DHT22;52192;52.002;5.956;2022-11-03T15:11:44;16.10;66.40
39045;DHT22;52192;52.002;5.956;2022-11-03T15:14:11;16.00;66.90
39045;DHT22;52192;52.002;5.956;2022-11-03T15:16:37;16.00;67.50
39045;DHT22;52192;52.002;5.956;2022-11-03T15:19:04;15.90;68.60
39045;DHT22;52192;52.002;5.956;2022-11-03T15:21:30;15.80;69.40
39045;DHT22;52192;52.002;5.956;2022-11-03T15:23:56;15.70;70.20
39045;DHT22;52192;52.002;5.956;2022-11-03T15:26:22;15.60;70.50
39045;DHT22;52192;52.002;5.956;2022-11-03T15:28:48;15.50;70.80
39045;DHT22;52192;52.002;5.956;2022-11-03T15:31:13;15.50;71.20
39045;DHT22;52192;52.002;5.956;2022-11-03T15:33:39;15.40;71.70
39045;DHT22;52192;52.002;5.956;2022-11-03T15:36:05;15.40;71.90
39045;DHT22;52192;52.002;5.956;2022-11-03T15:38:32;15.40;72.20
39045;DHT22;52192;52.002;5.956;2022-11-03T15:40:57;15.30;72.60
39045;DHT22;52192;52.002;5.956;2022-11-03T15:43:47;15.20;72.90
39045;DHT22;52192;52.002;5.956;2022-11-03T15:46:15;15.30;73.20
39045;DHT22;52192;52.002;5.956;2022-11-03T15:48:41;15.20;73.60
39045;DHT22;52192;52.002;5.956;2022-11-03T15:51:08;15.10;73.90
39045;DHT22;52192;52.002;5.956;2022-11-03T15:53:34;15.10;74.30
39045;DHT22;52192;52.002;5.956;2022-11-03T15:56:00;15.10;74.40
39045;DHT22;52192;52.002;5.956;2022-11-03T15:58:26;15.10;74.80
39045;DHT22;52192;52.002;5.956;2022-11-03T16:00:51;15.10;75.10
39045;DHT22;52192;52.002;5.956;2022-11-03T16:03:17;15.00;75.00
39045;DHT22;52192;52.002;5.956;2022-11-03T16:05:43;15.00;75.20
39045;DHT22;52192;52.002;5.956;2022-11-03T16:08:08;15.00;75.30
39045;DHT22;52192;52.002;5.956;2022-11-03T16:10:34;15.00;76.00
39045;DHT22;52192;52.002;5.956;2022-11-03T16:13:00;14.90;76.00
39045;DHT22;52192;52.002;5.956;2022-11-03T16:15:25;14.90;76.20
39045;DHT22;52192;52.002;5.956;2022-11-03T16:17:51;14.90;76.50
39045;DHT22;52192;52.002;5.956;2022-11-03T16:20:16;14.90;76.40
39045;DHT22;52192;52.002;5.956;2022-11-03T16:22:42;14.80;76.50
39045;DHT22;52192;52.002;5.956;2022-11-03T16:25:08;14.90;76.60
39045;DHT22;52192;52.002;5.956;2022-11-03T16:27:34;14.80;76.50
39045;DHT22;52192;52.002;5.956;2022-11-03T16:29:59;14.90;76.60
39045;DHT22;52192;52.002;5.956;2022-11-03T16:32:25;14.80;76.70
39045;DHT22;52192;52.002;5.956;2022-11-03T16:34:51;14.80;76.70
39045;DHT22;52192;52.002;5.956;2022-11-03T16:37:16;14.80;77.20